LEXJLFBD

Guest
Details From LEXJ - Santander
To LFBD - Bordeaux Merignac
Flight Number -
Tags generated
Created
Modified
Stats Distance 158 nm / 293 km
Max Altitude 19,700 ft / 6,005 m
Waypoints 3
Social Downloads 1
Likes 0
Share VATSIM

Download

Looking for another format? Having issues loading an existing format? Contact us
Advertisement - Login to hide

Notes

Basic altitude profile: - Ascent Rate: 2500ft/min - Ascent Speed: 250kts - Cruise Altitude: 35000ft - Cruise Speed: 420kts - Descent Rate: 1500ft/min - Descent Speed: 250kts

Route

LEXJ BELEN LFBD

ID Type Via Altitude Latitude Longitude Leg Dist Tot Dist Heading (true) Name
O LEXJ APT - 0 ft / 0 m 43.42719˚ -3.82047˚ - 0 nm - Santander
BELEN FIX - 19,700 ft / 6,005 m 43.91416˚ -2.73864˚ 55 nm 55 nm 58° / 58° -
O LFBD APT - 0 ft / 0 m 44.82876˚ -0.71476˚ 102 nm 158 nm 57° / 58° Bordeaux Merignac

Altitude Profile

Advertisement - Login to hide

LEXJ

Details ICAO LEXJ (SDR)
Name Santander
Region Spain
Timezone Europe/Madrid (UTC+1.0)
Stats Elevation 16 ft / 5 m (AMSL)
Location 43.427188° -3.820470°
Runways 1
Magnetic Variation 0.913° W

METAR

LEXJ 130530Z 23009KT 9999 BKN032 BKN045 10/05 Q1019

Decode

TAF

TAF TAF LEXJ 130200Z 1303/1403 22009KT 9999 SCT050 TX15/1314Z TN08/1306Z PROB40 TEMPO 1306/1309 22015G25KT TEMPO 1318/1403 3000 RA PROB40 TEMPO 1321/1403 28010KT 3000 RA BKN010

Decode

Departure Runways

ID Width Length Bearing (true) Bearing (mag) Surface Threshold Offset Overrun Length
11 148 ft / 45 m 7,597 ft / 2,316 m 110.20° 111.11° Asphalt 0 ft / 0 m 98 ft / 30 m
29 148 ft / 45 m 7,597 ft / 2,316 m 290.22° 291.13° Asphalt 0 ft / 0 m 0 ft / 0 m

LFBD

Details ICAO LFBD (BOD)
Name Bordeaux Merignac
Region France
Timezone Europe/Paris (UTC+1.0)
Stats Elevation 166 ft / 51 m (AMSL)
Location 44.828762° -0.714755°
Runways 2
Magnetic Variation 0.067° W

METAR

LFBD 130530Z AUTO 19008KT 9999 BKN042 BKN049 BKN066 07/06 Q1018

Decode

TAF

Not found

Destination Runways

ID Width Length Bearing (true) Bearing (mag) Surface Threshold Offset Overrun Length
05 148 ft / 45 m 10,164 ft / 3,098 m 45.48° 45.55° Asphalt 26 ft / 8 m 1,145 ft / 349 m
11 148 ft / 45 m 7,931 ft / 2,417 m 106.45° 106.52° Asphalt 26 ft / 8 m 1,198 ft / 365 m
23 148 ft / 45 m 10,164 ft / 3,098 m 225.50° 225.57° Asphalt 39 ft / 12 m 1,266 ft / 386 m
29 148 ft / 45 m 7,931 ft / 2,417 m 286.47° 286.54° Asphalt 33 ft / 10 m 1,201 ft / 366 m

Approach Navaids

Runway Type Ident Frequency Range Bearing (true) Bearing (mag) Slope Elevation
23 Localiser BD 110.30 MHz 18 nm / 33 km 225.33° 225.39° - 161 ft / 49 m (AMSL)
23 Glidescope BD 110.30 MHz 10 nm / 19 km 225.49° 225.56° 3.00° 152 ft / 46 m (AMSL)
23 DME BD 110.30 MHz 18 nm / 33 km - - - 207 ft / 63 m (AMSL)
29 Localiser BEI 111.15 MHz 18 nm / 33 km 286.30° 286.36° - 160 ft / 49 m (AMSL)
29 Glidescope BEI 111.15 MHz 10 nm / 19 km 286.46° 286.53° 3.00° 158 ft / 48 m (AMSL)
29 DME BEI 111.15 MHz 18 nm / 33 km - - - 214 ft / 65 m (AMSL)